createdAt,value
2022-10-11T00:00:10.878Z,19.30
2022-10-11T00:02:37.756Z,15.80
2022-10-11T00:05:05.037Z,18.20
2022-10-11T00:07:31.720Z,22.25
2022-10-11T00:09:58.585Z,19.10
2022-10-11T00:12:25.517Z,17.20
2022-10-11T00:14:52.083Z,15.95
2022-10-11T00:17:18.910Z,17.98
2022-10-11T00:19:45.530Z,18.23
2022-10-11T00:22:12.256Z,13.55
2022-10-11T00:24:38.917Z,18.88
2022-10-11T00:27:05.589Z,21.20
2022-10-11T00:29:32.180Z,19.65
2022-10-11T00:31:59.020Z,18.20
2022-10-11T00:34:25.685Z,16.98
2022-10-11T00:36:52.273Z,18.52
2022-10-11T00:39:18.998Z,18.80
2022-10-11T00:41:47.833Z,18.17
2022-10-11T00:44:19.985Z,16.45
2022-10-11T00:49:28.221Z,18.48
2022-10-11T00:52:04.897Z,20.63
2022-10-11T00:54:36.225Z,19.63
2022-10-11T00:57:07.109Z,19.70
2022-10-11T00:59:41.599Z,23.08
2022-10-11T01:02:10.156Z,23.80
2022-10-11T01:04:36.952Z,21.88
2022-10-11T01:07:03.994Z,28.85
2022-10-11T01:09:31.468Z,24.98
2022-10-11T01:12:01.362Z,25.10
2022-10-11T01:15:02.859Z,19.10
2022-10-11T01:17:45.188Z,25.23
2022-10-11T01:23:26.828Z,24.23
2022-10-11T01:26:10.253Z,25.40
2022-10-11T01:28:36.902Z,20.23
2022-10-11T01:31:28.774Z,20.35
2022-10-11T01:34:02.221Z,29.15
2022-10-11T01:36:38.238Z,22.63
2022-10-11T01:39:24.413Z,26.52
2022-10-11T01:41:55.628Z,24.50
2022-10-11T01:44:26.036Z,26.15
2022-10-11T01:46:53.404Z,26.05
2022-10-11T01:49:20.569Z,25.15
2022-10-11T01:51:52.523Z,32.85
2022-10-11T01:55:09.156Z,30.48
2022-10-11T01:57:51.327Z,26.38
2022-10-11T02:00:24.431Z,29.60
2022-10-11T02:03:12.180Z,26.83
2022-10-11T02:05:46.539Z,29.58
2022-10-11T02:08:55.133Z,29.33
2022-10-11T02:11:27.788Z,33.28
2022-10-11T02:14:04.928Z,25.75
2022-10-11T02:16:37.326Z,26.35
2022-10-11T02:19:06.649Z,30.23
2022-10-11T02:21:36.213Z,34.67
2022-10-11T02:24:18.321Z,27.67
2022-10-11T02:26:52.857Z,30.58
2022-10-11T02:29:22.337Z,31.15
2022-10-11T02:31:51.391Z,34.78
2022-10-11T02:34:23.212Z,31.08
2022-10-11T02:37:24.842Z,29.27
2022-10-11T02:40:01.560Z,29.27
2022-10-11T02:42:34.128Z,28.50
2022-10-11T02:45:18.959Z,39.25
2022-10-11T02:47:46.977Z,27.90
2022-10-11T02:50:15.538Z,28.80
2022-10-11T02:52:42.280Z,28.42
2022-10-11T02:55:10.019Z,30.23
2022-10-11T02:57:36.861Z,30.35
2022-10-11T03:00:05.150Z,30.80
2022-10-11T03:02:31.706Z,40.03
2022-10-11T03:04:58.244Z,30.45
2022-10-11T03:07:25.007Z,30.85
2022-10-11T03:09:51.932Z,39.40
2022-10-11T03:12:18.801Z,32.70
2022-10-11T03:14:45.631Z,32.63
2022-10-11T03:17:35.225Z,28.85
2022-10-11T03:19:59.428Z,37.40
2022-10-11T03:22:26.140Z,31.75
2022-10-11T03:24:52.834Z,44.30
2022-10-11T03:27:20.233Z,34.42
2022-10-11T03:29:46.875Z,36.90
2022-10-11T03:32:13.808Z,39.08
2022-10-11T03:34:40.724Z,40.15
2022-10-11T03:37:07.544Z,37.20
2022-10-11T03:39:34.389Z,37.20
2022-10-11T03:42:01.281Z,34.08
2022-10-11T03:44:28.054Z,36.63
2022-10-11T03:46:54.842Z,37.40
2022-10-11T03:49:21.991Z,46.97
2022-10-11T03:51:48.758Z,36.33
2022-10-11T03:54:15.385Z,44.17
2022-10-11T03:56:42.049Z,34.85
2022-10-11T03:59:09.127Z,37.63
2022-10-11T04:01:38.385Z,38.97
2022-10-11T04:04:05.681Z,35.80
2022-10-11T04:06:32.819Z,43.13
2022-10-11T04:08:59.947Z,41.88
2022-10-11T04:11:27.167Z,41.72
2022-10-11T04:13:53.885Z,41.03
2022-10-11T04:16:20.608Z,40.75
2022-10-11T04:18:47.380Z,38.95
2022-10-11T04:21:14.068Z,48.58
2022-10-11T04:23:40.774Z,40.38
2022-10-11T04:26:09.155Z,44.03
2022-10-11T04:28:36.384Z,46.47
2022-10-11T04:31:05.162Z,42.03
2022-10-11T04:33:32.073Z,48.60
2022-10-11T04:35:58.932Z,52.22
2022-10-11T04:38:28.636Z,46.88
2022-10-11T04:40:55.521Z,40.15
2022-10-11T04:43:22.307Z,42.00
2022-10-11T04:45:51.242Z,49.83
2022-10-11T04:48:21.333Z,47.95
2022-10-11T04:50:48.254Z,53.20
2022-10-11T04:53:15.412Z,45.58
2022-10-11T04:55:42.283Z,54.08
2022-10-11T04:58:08.917Z,51.33
2022-10-11T05:00:35.765Z,43.78
2022-10-11T05:03:02.401Z,47.17
2022-10-11T05:05:29.083Z,50.05
2022-10-11T05:07:55.742Z,45.20
2022-10-11T05:10:22.395Z,54.92
2022-10-11T05:12:49.007Z,48.83
2022-10-11T05:15:15.693Z,47.72
2022-10-11T05:17:42.215Z,46.13
2022-10-11T05:20:09.665Z,60.25
2022-10-11T05:22:36.438Z,45.58
2022-10-11T05:25:03.562Z,56.78
2022-10-11T05:27:30.232Z,55.15
2022-10-11T05:29:56.802Z,57.45
2022-10-11T05:32:26.721Z,63.35
2022-10-11T05:34:54.715Z,51.53
2022-10-11T05:37:21.397Z,52.92
2022-10-11T05:39:48.311Z,48.70
2022-10-11T05:42:15.112Z,46.55
2022-10-11T05:44:41.977Z,45.88
2022-10-11T05:47:08.811Z,57.35
2022-10-11T05:49:35.828Z,50.60
2022-10-11T05:52:02.433Z,48.35
2022-10-11T05:54:31.070Z,57.58
2022-10-11T05:56:57.941Z,53.60
2022-10-11T05:59:24.661Z,49.53
2022-10-11T06:01:51.340Z,60.05
2022-10-11T06:04:19.163Z,47.83
2022-10-11T06:06:46.132Z,48.83
2022-10-11T06:09:13.063Z,47.33
2022-10-11T06:11:41.393Z,46.53
2022-10-11T06:14:09.509Z,46.95
2022-10-11T06:16:36.094Z,44.53
2022-10-11T06:19:02.994Z,44.80
2022-10-11T06:21:29.702Z,47.85
2022-10-11T06:24:01.134Z,45.75
2022-10-11T06:26:29.551Z,44.17
2022-10-11T06:28:56.491Z,42.83
2022-10-11T06:31:23.256Z,47.05
2022-10-11T06:33:50.087Z,39.05
2022-10-11T06:36:17.236Z,39.63
2022-10-11T06:38:45.388Z,42.17
2022-10-11T06:41:27.090Z,40.30
2022-10-11T06:43:54.100Z,38.97
2022-10-11T06:46:22.880Z,38.10
2022-10-11T06:48:50.196Z,38.08
2022-10-11T06:51:19.114Z,36.95
2022-10-11T06:53:59.742Z,33.70
2022-10-11T06:56:28.174Z,34.75
2022-10-11T06:58:56.144Z,35.80
2022-10-11T07:01:24.045Z,36.28
2022-10-11T07:03:55.011Z,37.20
2022-10-11T07:06:26.962Z,38.17
2022-10-11T07:08:54.916Z,37.58
2022-10-11T07:11:24.341Z,34.85
2022-10-11T07:13:55.591Z,32.42
2022-10-11T07:16:23.412Z,43.07
2022-10-11T07:18:58.813Z,39.05
2022-10-11T07:21:27.606Z,39.97
2022-10-11T07:23:54.257Z,41.10
2022-10-11T07:26:21.047Z,43.25
2022-10-11T07:28:48.051Z,33.67
2022-10-11T07:31:18.588Z,34.30
2022-10-11T07:33:45.378Z,33.05
2022-10-11T07:36:12.918Z,42.00
2022-10-11T07:38:41.249Z,39.95
2022-10-11T07:41:09.739Z,35.75
2022-10-11T07:43:37.654Z,40.25
2022-10-11T07:46:05.843Z,33.55
2022-10-11T07:48:36.716Z,35.92
2022-10-11T07:51:07.871Z,41.47
2022-10-11T07:53:45.267Z,30.13
2022-10-11T07:56:13.400Z,34.13
2022-10-11T07:58:41.856Z,34.60
2022-10-11T08:01:10.433Z,35.35
2022-10-11T08:03:38.464Z,35.40
2022-10-11T08:06:09.208Z,37.15
2022-10-11T08:08:37.265Z,37.60
2022-10-11T08:11:04.375Z,34.55
2022-10-11T08:13:31.100Z,36.33
2022-10-11T08:15:57.959Z,29.80
2022-10-11T08:18:24.979Z,30.27
2022-10-11T08:20:52.170Z,32.10
2022-10-11T08:23:19.594Z,39.03
2022-10-11T08:25:47.712Z,32.22
2022-10-11T08:28:17.651Z,30.50
2022-10-11T08:30:52.621Z,27.17
2022-10-11T08:33:21.839Z,26.27
2022-10-11T08:35:49.203Z,28.30
2022-10-11T08:38:16.566Z,39.30
2022-10-11T08:40:49.581Z,27.08
2022-10-11T08:43:32.460Z,28.13
2022-10-11T08:46:03.572Z,30.17
2022-10-11T08:48:36.970Z,24.48
2022-10-11T08:51:13.953Z,30.13
2022-10-11T08:53:51.752Z,31.00
2022-10-11T08:56:20.697Z,31.63
2022-10-11T08:58:55.038Z,29.85
2022-10-11T09:01:25.036Z,26.40
2022-10-11T09:03:52.699Z,26.92
2022-10-11T09:06:31.207Z,26.23
2022-10-11T09:09:31.030Z,27.58
2022-10-11T09:12:06.265Z,32.22
2022-10-11T09:14:54.272Z,25.23
2022-10-11T09:17:26.749Z,29.75
2022-10-11T09:20:31.871Z,25.60
2022-10-11T09:23:20.967Z,34.95
2022-10-11T09:26:01.701Z,24.27
2022-10-11T09:29:27.355Z,27.50
2022-10-11T09:31:56.071Z,31.10
2022-10-11T09:34:27.460Z,23.95
2022-10-11T09:37:03.686Z,27.38
2022-10-11T09:39:50.287Z,27.40
2022-10-11T09:42:17.226Z,25.48
2022-10-11T09:44:49.910Z,26.58
2022-10-11T09:47:27.225Z,25.90
2022-10-11T09:49:58.170Z,25.95
2022-10-11T09:52:25.813Z,25.33
2022-10-11T09:54:56.573Z,28.48
2022-10-11T09:57:23.214Z,25.70
2022-10-11T10:00:01.807Z,25.58
2022-10-11T10:02:30.839Z,20.88
2022-10-11T10:05:09.591Z,28.55
2022-10-11T10:07:41.054Z,21.38
2022-10-11T10:10:43.268Z,25.38
2022-10-11T10:13:51.570Z,24.65
2022-10-11T10:16:26.408Z,26.60
2022-10-11T10:19:16.008Z,27.30
2022-10-11T10:21:49.340Z,25.02
2022-10-11T10:24:37.187Z,22.25
2022-10-11T10:27:23.030Z,29.40
2022-10-11T10:30:10.368Z,22.98
2022-10-11T10:32:53.317Z,25.70
2022-10-11T10:35:29.391Z,31.85
2022-10-11T10:38:08.166Z,27.40
2022-10-11T10:40:45.483Z,22.52
2022-10-11T10:43:23.869Z,21.65
2022-10-11T10:46:12.058Z,23.35
2022-10-11T10:49:52.473Z,21.48
2022-10-11T10:52:05.392Z,21.38
2022-10-11T10:54:50.535Z,24.40
2022-10-11T10:57:50.529Z,19.95
2022-10-11T11:00:22.732Z,25.77
2022-10-11T11:03:14.218Z,25.88
2022-10-11T11:05:58.011Z,20.23
2022-10-11T11:09:02.029Z,25.65
2022-10-11T11:11:41.682Z,24.85
2022-10-11T11:14:21.741Z,29.40
2022-10-11T11:17:07.278Z,20.85
2022-10-11T11:19:33.846Z,22.90
2022-10-11T11:22:12.535Z,27.55
2022-10-11T11:25:07.293Z,23.85
2022-10-11T11:27:55.624Z,21.70
2022-10-11T11:31:02.492Z,19.30
2022-10-11T11:33:48.691Z,26.83
2022-10-11T11:36:26.214Z,25.60
2022-10-11T11:38:59.805Z,23.40
2022-10-11T11:41:33.429Z,21.85
2022-10-11T11:44:35.308Z,27.45
2022-10-11T11:47:11.822Z,21.20
2022-10-11T11:52:23.226Z,25.42
2022-10-11T11:55:08.416Z,25.50
2022-10-11T11:57:53.142Z,21.83
2022-10-11T12:00:31.161Z,24.73
2022-10-11T12:06:14.645Z,30.45
2022-10-11T12:08:44.745Z,27.25
2022-10-11T12:11:40.229Z,21.92
2022-10-11T12:17:09.112Z,24.02
2022-10-11T12:19:38.495Z,30.27
2022-10-11T12:22:27.044Z,27.10
2022-10-11T12:25:21.267Z,23.60
2022-10-11T12:27:52.002Z,23.15
2022-10-11T12:30:53.326Z,22.75
2022-10-11T12:33:45.608Z,21.52
2022-10-11T12:36:37.422Z,25.20
2022-10-11T12:39:19.848Z,24.08
2022-10-11T12:41:55.437Z,21.20
2022-10-11T12:44:30.065Z,26.77
2022-10-11T12:47:02.731Z,30.17
2022-10-11T12:49:41.569Z,24.50
2022-10-11T12:52:17.365Z,23.50
2022-10-11T12:55:14.602Z,23.33
2022-10-11T12:58:22.568Z,19.38
2022-10-11T13:00:52.342Z,23.15
2022-10-11T13:03:44.503Z,27.63
2022-10-11T13:06:26.022Z,26.92
2022-10-11T13:09:03.103Z,23.95
2022-10-11T13:11:33.781Z,28.95
2022-10-11T13:14:24.796Z,22.17
2022-10-11T13:17:00.390Z,21.15
2022-10-11T13:19:28.449Z,25.67
2022-10-11T13:21:58.944Z,24.60
2022-10-11T13:24:27.748Z,24.88
2022-10-11T13:26:57.070Z,22.77
2022-10-11T13:29:38.350Z,27.33
2022-10-11T13:32:36.801Z,23.52
2022-10-11T13:35:14.728Z,21.42
2022-10-11T13:37:46.170Z,22.73
2022-10-11T13:40:15.939Z,25.20
2022-10-11T13:42:43.485Z,31.30
2022-10-11T13:45:14.432Z,26.02
2022-10-11T13:47:41.156Z,24.77
2022-10-11T13:50:19.293Z,27.10
2022-10-11T13:53:12.041Z,17.30
2022-10-11T13:55:41.687Z,26.05
2022-10-11T13:58:32.660Z,24.42
2022-10-11T14:01:02.805Z,25.48
2022-10-11T14:03:43.665Z,18.98
2022-10-11T14:06:11.073Z,28.23
2022-10-11T14:08:43.202Z,30.75
2022-10-11T14:11:12.307Z,31.67
2022-10-11T14:13:47.490Z,24.85
2022-10-11T14:16:30.156Z,25.58
2022-10-11T14:18:59.799Z,22.27
2022-10-11T14:21:31.423Z,24.45
2022-10-11T14:24:10.679Z,24.77
2022-10-11T14:26:43.756Z,24.98
2022-10-11T14:29:13.354Z,27.73
2022-10-11T14:31:42.260Z,29.63
2022-10-11T14:34:16.473Z,33.55
2022-10-11T14:36:43.100Z,30.33
2022-10-11T14:39:16.537Z,37.88
2022-10-11T14:41:43.619Z,28.15
2022-10-11T14:44:10.578Z,33.15
2022-10-11T14:46:38.821Z,33.05
2022-10-11T14:49:36.250Z,33.38
2022-10-11T14:52:05.885Z,32.53
2022-10-11T14:54:33.336Z,34.97
2022-10-11T14:57:02.552Z,31.27
2022-10-11T14:59:36.398Z,33.17
2022-10-11T15:02:05.636Z,35.22
2022-10-11T15:04:32.997Z,36.70
2022-10-11T15:07:00.079Z,29.80
2022-10-11T15:09:27.001Z,32.50
2022-10-11T15:11:55.083Z,30.08
2022-10-11T15:14:23.486Z,39.00
2022-10-11T15:16:50.491Z,37.72
2022-10-11T15:19:21.255Z,41.60
2022-10-11T15:21:48.689Z,37.45
2022-10-11T15:24:19.909Z,38.80
2022-10-11T15:26:47.988Z,52.63
2022-10-11T15:29:17.844Z,41.60
2022-10-11T15:31:45.048Z,42.55
2022-10-11T15:34:11.687Z,33.38
2022-10-11T15:36:38.602Z,35.08
2022-10-11T15:39:23.388Z,26.42
2022-10-11T15:41:49.934Z,40.58
2022-10-11T15:44:16.492Z,29.25
2022-10-11T15:46:43.851Z,30.83
2022-10-11T15:49:14.340Z,35.25
2022-10-11T15:51:41.967Z,36.20
2022-10-11T15:54:09.015Z,28.35
2022-10-11T15:56:35.929Z,33.08
2022-10-11T15:59:02.817Z,24.08
2022-10-11T16:01:29.530Z,22.42
2022-10-11T16:03:56.393Z,28.88
2022-10-11T16:06:23.562Z,26.02
2022-10-11T16:08:50.852Z,32.78
2022-10-11T16:11:17.544Z,23.50
2022-10-11T16:13:45.097Z,28.77
2022-10-11T16:16:12.449Z,24.92
2022-10-11T16:18:39.446Z,25.83
2022-10-11T16:21:09.810Z,24.38
2022-10-11T16:23:37.344Z,28.58
2022-10-11T16:26:07.633Z,29.85
2022-10-11T16:28:35.796Z,25.27
2022-10-11T16:31:08.129Z,28.48
2022-10-11T16:33:34.804Z,24.75
2022-10-11T16:36:26.056Z,24.63
2022-10-11T16:38:52.790Z,28.00
2022-10-11T16:41:19.365Z,24.20
2022-10-11T16:43:49.759Z,35.30
2022-10-11T16:46:16.734Z,30.77
2022-10-11T16:48:43.641Z,29.80
2022-10-11T16:51:10.498Z,25.90
2022-10-11T16:53:37.435Z,23.83
2022-10-11T16:56:09.060Z,30.45
2022-10-11T16:58:36.448Z,26.45
2022-10-11T17:01:08.192Z,23.75
2022-10-11T17:03:34.903Z,38.55
2022-10-11T17:06:01.889Z,27.73
2022-10-11T17:08:29.147Z,23.83
2022-10-11T17:10:57.902Z,36.35
2022-10-11T17:13:24.779Z,34.30
2022-10-11T17:15:51.394Z,28.60
2022-10-11T17:18:18.446Z,28.83
2022-10-11T17:20:45.061Z,29.63
2022-10-11T17:23:13.106Z,36.20
2022-10-11T17:25:44.659Z,30.45
2022-10-11T17:28:11.851Z,29.77
2022-10-11T17:30:41.736Z,31.85
2022-10-11T17:33:09.035Z,30.10
2022-10-11T17:35:38.584Z,29.00
2022-10-11T17:38:06.302Z,35.97
2022-10-11T17:40:33.245Z,30.50
2022-10-11T17:43:00.253Z,36.92
2022-10-11T17:45:26.863Z,32.50
2022-10-11T17:47:53.477Z,38.58
2022-10-11T17:50:20.220Z,38.90
2022-10-11T17:52:47.345Z,41.63
2022-10-11T17:55:15.285Z,37.40
2022-10-11T17:57:42.003Z,30.40
2022-10-11T18:00:09.409Z,30.77
2022-10-11T18:02:36.429Z,31.30
2022-10-11T18:05:03.308Z,32.67
2022-10-11T18:07:29.989Z,37.42
2022-10-11T18:09:57.029Z,37.63
2022-10-11T18:12:23.898Z,40.03
2022-10-11T18:14:51.275Z,36.78
2022-10-11T18:17:19.064Z,41.05
2022-10-11T18:19:45.683Z,41.55
2022-10-11T18:22:12.593Z,39.40
2022-10-11T18:24:39.380Z,43.83
2022-10-11T18:27:06.087Z,44.67
2022-10-11T18:29:32.793Z,48.75
2022-10-11T18:31:59.423Z,39.78
2022-10-11T18:34:26.231Z,44.90
2022-10-11T18:36:54.088Z,47.17
2022-10-11T18:39:22.069Z,47.33
2022-10-11T18:41:48.784Z,44.63
2022-10-11T18:44:16.567Z,45.85
2022-10-11T18:46:44.211Z,48.00
2022-10-11T18:49:11.139Z,46.00
2022-10-11T18:51:40.411Z,51.58
2022-10-11T18:54:08.387Z,45.90
2022-10-11T18:56:37.120Z,46.70
2022-10-11T18:59:05.676Z,49.13
2022-10-11T19:01:40.854Z,47.00
2022-10-11T19:04:09.541Z,52.42
2022-10-11T19:06:42.571Z,47.47
2022-10-11T19:09:17.800Z,50.45
2022-10-11T19:11:44.660Z,49.40
2022-10-11T19:14:14.912Z,50.15
2022-10-11T19:16:45.517Z,48.80
2022-10-11T19:19:13.017Z,50.55
2022-10-11T19:21:39.758Z,45.80
2022-10-11T19:24:07.415Z,50.22
2022-10-11T19:26:37.342Z,49.95
2022-10-11T19:29:14.680Z,56.90
2022-10-11T19:31:45.074Z,52.33
2022-10-11T19:34:12.008Z,45.25
2022-10-11T19:36:41.090Z,48.45
2022-10-11T19:39:07.825Z,50.97
2022-10-11T19:41:34.591Z,48.05
2022-10-11T19:44:01.236Z,48.90
2022-10-11T19:49:17.641Z,54.35
2022-10-11T19:51:44.841Z,48.13
2022-10-11T19:54:13.777Z,52.25
2022-10-11T19:56:42.508Z,46.72
2022-10-11T19:59:10.510Z,46.65
2022-10-11T20:01:38.014Z,55.45
2022-10-11T20:04:07.137Z,46.08
2022-10-11T20:06:38.642Z,48.33
2022-10-11T20:09:29.564Z,49.35
2022-10-11T20:11:56.221Z,46.13
2022-10-11T20:14:22.949Z,48.72
2022-10-11T20:16:50.734Z,50.30
2022-10-11T20:19:17.549Z,53.55
2022-10-11T20:21:45.244Z,54.28
2022-10-11T20:24:12.180Z,49.05
2022-10-11T20:26:39.384Z,46.95
2022-10-11T20:29:06.610Z,49.28
2022-10-11T20:31:34.958Z,55.25
2022-10-11T20:34:04.289Z,48.92
2022-10-11T20:36:32.160Z,47.13
2022-10-11T20:39:00.224Z,58.50
2022-10-11T20:41:31.737Z,55.45
2022-10-11T20:44:00.256Z,52.13
2022-10-11T20:46:30.021Z,52.28
2022-10-11T20:49:04.665Z,56.80
2022-10-11T20:51:33.589Z,61.13
2022-10-11T20:54:02.162Z,45.08
2022-10-11T20:56:29.989Z,51.53
2022-10-11T20:58:57.869Z,62.85
2022-10-11T21:01:37.164Z,55.33
2022-10-11T21:04:05.148Z,53.15
2022-10-11T21:06:32.857Z,55.45
2022-10-11T21:09:00.276Z,60.58
2022-10-11T21:11:28.890Z,64.38
2022-10-11T21:13:57.064Z,64.13
2022-10-11T21:16:23.867Z,56.45
2022-10-11T21:18:52.266Z,51.78
2022-10-11T21:21:19.533Z,54.55
2022-10-11T21:23:46.816Z,60.95
2022-10-11T21:26:16.778Z,50.42
2022-10-11T21:28:46.399Z,60.85
2022-10-11T21:31:16.591Z,56.08
2022-10-11T21:33:44.400Z,54.90
2022-10-11T21:36:19.489Z,63.88
2022-10-11T21:38:46.673Z,56.88
2022-10-11T21:41:16.847Z,57.30
2022-10-11T21:43:44.157Z,64.07
2022-10-11T21:46:14.037Z,59.78
2022-10-11T21:48:41.227Z,60.55
2022-10-11T21:53:41.186Z,67.28
2022-10-11T21:56:07.903Z,60.95
2022-10-11T21:58:34.584Z,73.07
2022-10-11T22:01:01.217Z,71.25
2022-10-11T22:03:27.896Z,57.95
2022-10-11T22:05:54.594Z,58.45
2022-10-11T22:08:21.396Z,62.22
2022-10-11T22:10:56.969Z,63.63
2022-10-11T22:13:24.960Z,63.88
2022-10-11T22:15:51.756Z,70.15
2022-10-11T22:18:18.743Z,58.38
2022-10-11T22:20:45.380Z,66.68
2022-10-11T22:23:12.074Z,59.97
2022-10-11T22:25:39.245Z,59.40
2022-10-11T22:28:07.193Z,64.32
2022-10-11T22:30:34.410Z,58.10
2022-10-11T22:33:01.071Z,65.35
2022-10-11T22:35:27.947Z,59.95
2022-10-11T22:37:54.700Z,61.97
2022-10-11T22:40:21.391Z,66.55
2022-10-11T22:42:48.121Z,61.85
2022-10-11T22:45:14.749Z,60.60
2022-10-11T22:47:41.467Z,64.40
2022-10-11T22:50:08.514Z,59.15
2022-10-11T22:52:35.189Z,71.85
2022-10-11T22:55:01.836Z,68.60
2022-10-11T22:57:28.515Z,71.25
2022-10-11T22:59:55.157Z,58.42
2022-10-11T23:02:21.714Z,64.25
2022-10-11T23:04:48.434Z,67.68
2022-10-11T23:07:15.043Z,58.05
2022-10-11T23:09:41.590Z,63.45
2022-10-11T23:12:08.621Z,61.45
2022-10-11T23:14:35.233Z,61.47
2022-10-11T23:17:01.851Z,58.08
2022-10-11T23:19:28.408Z,73.38
2022-10-11T23:21:55.039Z,65.78
2022-10-11T23:24:21.713Z,61.03
2022-10-11T23:26:48.322Z,67.82
2022-10-11T23:29:14.980Z,59.58
2022-10-11T23:31:41.581Z,61.67
2022-10-11T23:34:08.163Z,58.58
2022-10-11T23:36:34.782Z,68.93
2022-10-11T23:39:01.429Z,61.90
2022-10-11T23:41:29.418Z,57.17
2022-10-11T23:43:57.380Z,55.38
2022-10-11T23:46:24.313Z,64.13
2022-10-11T23:48:51.165Z,61.95
2022-10-11T23:51:17.811Z,60.33
2022-10-11T23:53:44.366Z,71.60
2022-10-11T23:56:11.782Z,61.15
2022-10-11T23:58:38.846Z,61.22
